Time;durP1;ratioP1;P1;durP2;ratioP2;P2;SDS_P1;SDS_P2;PMS_P1;PMS_P2;Temp;Humidity;BMP_temperature;BMP_pressure;BME280_temperature;BME280_humidity;BME280_pressure;Samples;Min_cycle;Max_cycle;Signal;HPM_P1;HPM_P2
2023/01/31 00:00:53;;;;;;;;;;;;;;;25.63;36.55;95132.22;4870592;29;9461;-67
2023/01/31 00:03:22;;;;;;;;;;;;;;;25.63;37.08;95132.22;4893991;29;7352;-67
2023/01/31 00:05:48;;;;;;;;;;;;;;;25.61;37.36;95123.72;4891369;29;7232;-67
2023/01/31 00:08:14;;;;;;;;;;;;;;;25.62;37.43;95116.19;4890017;29;7625;-67
2023/01/31 00:10:41;;;;;;;;;;;;;;;25.64;36.66;95119.22;4878034;29;9048;-67
2023/01/31 00:13:17;;;;;;;;;;;;;;;25.65;37.01;95120.72;4883000;29;9010;-68
2023/01/31 00:15:55;;;;;;;;;;;;;;;25.63;36.88;95121.22;4895195;29;8726;-67
2023/01/31 00:18:41;;;;;;;;;;;;;;;25.64;37.09;95110.94;4943753;28;7254;-67
2023/01/31 00:21:21;;;;;;;;;;;;;;;25.63;36.72;95112.19;4953212;28;9252;-67
2023/01/31 00:23:51;;;;;;;;;;;;;;;25.63;37.07;95112.19;4958223;28;7270;-67
2023/01/31 00:26:47;;;;;;;;;;;;;;;25.63;36.51;95112.94;4985685;28;7303;-67
2023/01/31 00:29:34;;;;;;;;;;;;;;;25.63;36.36;95104.69;4921172;28;7106;-67
2023/01/31 00:32:00;;;;;;;;;;;;;;;25.63;36.76;95110.19;4949476;28;7218;-67
2023/01/31 00:34:26;;;;;;;;;;;;;;;25.63;36.54;95101.91;4945025;28;10219;-67
2023/01/31 00:36:52;;;;;;;;;;;;;;;25.62;36.52;95103.16;4940893;28;7651;-67
2023/01/31 00:39:33;;;;;;;;;;;;;;;25.61;37.16;95104.41;4938444;28;7229;-67
2023/01/31 00:42:00;;;;;;;;;;;;;;;25.61;36.91;95096.16;4936646;28;7264;-67
2023/01/31 00:44:27;;;;;;;;;;;;;;;25.62;37.21;95094.16;4936242;28;8826;-67
2023/01/31 00:46:54;;;;;;;;;;;;;;;25.63;37.09;95096.41;4942397;28;7030;-67
2023/01/31 00:49:31;;;;;;;;;;;;;;;25.59;36.57;95082.13;4930406;28;7621;-67
2023/01/31 00:52:22;;;;;;;;;;;;;;;25.58;36.89;95085.38;4938451;28;8531;-67
2023/01/31 00:55:06;;;;;;;;;;;;;;;25.54;37.45;95082.84;4939259;28;7447;-67
2023/01/31 00:57:50;;;;;;;;;;;;;;;25.49;36.71;95089.06;4945846;28;8704;-67
2023/01/31 01:00:26;;;;;;;;;;;;;;;25.55;37.54;95084.38;4958185;28;8730;-67
2023/01/31 01:03:00;;;;;;;;;;;;;;;25.55;36.87;95073.34;4938528;28;9323;-67
2023/01/31 01:05:26;;;;;;;;;;;;;;;25.56;37.14;95066.56;4985637;28;8094;-67
2023/01/31 01:08:28;;;;;;;;;;;;;;;25.58;36.54;95058.56;5050046;28;7140;-67
2023/01/31 01:11:29;;;;;;;;;;;;;;;25.59;36.43;95064.84;4956668;28;7018;-67
2023/01/31 01:14:04;;;;;;;;;;;;;;;25.58;37.49;95068.84;4946073;28;9451;-67
2023/01/31 01:16:43;;;;;;;;;;;;;;;25.55;37.25;95065.09;4956295;28;9117;-67
2023/01/31 01:19:12;;;;;;;;;;;;;;;25.58;37.11;95077.13;4973607;28;7707;-67
2023/01/31 01:21:50;;;;;;;;;;;;;;;25.58;36.45;95069.59;4969071;28;9101;-67
2023/01/31 01:24:18;;;;;;;;;;;;;;;25.58;37.52;95074.38;4953595;28;7522;-67
2023/01/31 01:26:46;;;;;;;;;;;;;;;25.58;37.12;95072.34;4962354;28;7013;-67
2023/01/31 01:29:48;;;;;;;;;;;;;;;25.59;37.51;95073.88;4965747;28;7429;-67
2023/01/31 01:32:23;;;;;;;;;;;;;;;25.58;37.40;95072.34;4909511;29;7111;-67
2023/01/31 01:34:49;;;;;;;;;;;;;;;25.61;37.29;95067.84;4911949;29;8697;-67
2023/01/31 01:37:18;;;;;;;;;;;;;;;25.60;37.24;95071.88;4914217;29;7029;-67
2023/01/31 01:39:51;;;;;;;;;;;;;;;25.59;37.33;95076.63;4915269;29;8662;-67
2023/01/31 01:42:23;;;;;;;;;;;;;;;25.59;36.58;95082.13;4914536;29;7039;-67
2023/01/31 01:48:32;;;;;;;;;;;;;;;25.58;37.44;95077.84;4988257;28;6848;-62
2023/01/31 01:51:35;;;;;;;;;;;;;;;25.59;36.39;95081.38;4978560;28;8806;-62
2023/01/31 01:54:18;;;;;;;;;;;;;;;25.58;37.41;95066.84;4990823;28;7256;-62
2023/01/31 01:56:48;;;;;;;;;;;;;;;25.57;37.42;95073.59;4975902;28;7361;-62
2023/01/31 01:59:47;;;;;;;;;;;;;;;25.56;36.59;95066.56;4969370;28;7284;-62
2023/01/31 02:02:31;;;;;;;;;;;;;;;25.57;36.75;95064.56;4952985;28;9276;-61
2023/01/31 02:05:14;;;;;;;;;;;;;;;25.57;36.54;95065.34;4944827;28;7474;-62
2023/01/31 02:07:50;;;;;;;;;;;;;;;25.56;36.70;95060.31;4971490;28;8229;-62
2023/01/31 02:10:47;;;;;;;;;;;;;;;25.56;36.81;95066.56;4959873;28;7349;-62
2023/01/31 02:13:16;;;;;;;;;;;;;;;25.56;37.57;95061.06;4963838;28;8845;-62
2023/01/31 02:16:01;;;;;;;;;;;;;;;25.57;37.49;95062.59;4951705;28;7286;-62
2023/01/31 02:18:29;;;;;;;;;;;;;;;25.50;37.53;95060.28;4961199;28;6917;-67
2023/01/31 02:21:32;;;;;;;;;;;;;;;25.50;36.62;95074.06;4956937;28;7357;-66
2023/01/31 02:24:45;;;;;;;;;;;;;;;25.55;36.60;95067.06;4962526;28;9147;-66
2023/01/31 02:27:44;;;;;;;;;;;;;;;25.56;36.75;95057.56;4967557;28;8854;-67
2023/01/31 02:30:33;;;;;;;;;;;;;;;25.58;36.56;95060.59;4958435;28;7109;-67
2023/01/31 02:33:19;;;;;;;;;;;;;;;25.58;36.77;95064.06;4961289;28;7203;-67
2023/01/31 02:35:48;;;;;;;;;;;;;;;25.58;36.49;95063.34;4968106;28;9272;-66
2023/01/31 02:38:34;;;;;;;;;;;;;;;25.59;36.67;95062.09;4985929;28;7064;-66
2023/01/31 02:41:19;;;;;;;;;;;;;;;25.59;37.26;95071.09;5041147;28;9176;-66
2023/01/31 02:50:52;;;;;;;;;;;;;;;25.58;37.09;95069.59;5043032;28;8942;-66
2023/01/31 02:53:45;;;;;;;;;;;;;;;25.58;37.05;95071.59;5036864;28;7522;-67
2023/01/31 02:56:53;;;;;;;;;;;;;;;25.58;37.49;95071.59;5042576;28;8472;-67
2023/01/31 02:59:30;;;;;;;;;;;;;;;25.55;37.40;95072.59;5048348;28;7273;-67
2023/01/31 03:02:05;;;;;;;;;;;;;;;25.58;37.36;95072.34;5046294;28;9144;-67
2023/01/31 03:04:33;;;;;;;;;;;;;;;25.59;36.87;95081.38;5041098;28;7830;-66
2023/01/31 03:07:25;;;;;;;;;;;;;;;25.59;37.28;95079.38;5036511;28;7091;-67
2023/01/31 03:10:33;;;;;;;;;;;;;;;25.59;37.40;95071.09;5038702;28;9477;-67
2023/01/31 03:13:19;;;;;;;;;;;;;;;25.57;36.34;95062.59;5037155;28;7349;-66
2023/01/31 03:19:40;;;;;;;;;;;;;;;25.59;37.46;95070.34;5025719;28;7367;-66
2023/01/31 03:22:31;;;;;;;;;;;;;;;25.59;37.44;95075.84;5023647;28;9076;-66
2023/01/31 03:25:01;;;;;;;;;;;;;;;25.58;37.16;95069.59;5006663;28;7107;-66
2023/01/31 03:27:27;;;;;;;;;;;;;;;25.59;36.59;95067.59;4991834;28;9301;-66
2023/01/31 03:30:01;;;;;;;;;;;;;;;25.58;37.13;95066.09;5011017;28;7058;-66
2023/01/31 03:32:40;;;;;;;;;;;;;;;25.59;36.53;95076.63;5007181;28;8998;-66
2023/01/31 03:35:08;;;;;;;;;;;;;;;25.60;37.35;95077.38;5024348;28;9058;-67
2023/01/31 03:37:49;;;;;;;;;;;;;;;25.59;37.02;95084.88;5025896;28;8787;-67
2023/01/31 03:40:26;;;;;;;;;;;;;;;25.59;37.44;95089.63;5009184;28;6991;-66
2023/01/31 03:43:25;;;;;;;;;;;;;;;25.57;37.27;95090.13;5011449;28;7601;-66
2023/01/31 03:46:20;;;;;;;;;;;;;;;25.59;36.51;95092.38;5021558;28;7198;-66
2023/01/31 03:49:07;;;;;;;;;;;;;;;25.56;37.08;95102.38;5020369;28;9052;-66
2023/01/31 03:52:03;;;;;;;;;;;;;;;25.58;37.58;95102.63;5019982;28;8336;-66
2023/01/31 03:54:48;;;;;;;;;;;;;;;25.56;37.38;95105.13;5009305;28;7472;-67
2023/01/31 03:57:21;;;;;;;;;;;;;;;25.57;37.81;95100.38;5032714;28;7049;-66
2023/01/31 03:59:52;;;;;;;;;;;;;;;25.53;37.49;95100.63;5030533;28;7243;-66
2023/01/31 04:02:34;;;;;;;;;;;;;;;25.56;36.66;95104.38;5042009;28;9064;-67
2023/01/31 04:05:12;;;;;;;;;;;;;;;25.57;36.97;95101.16;5053478;28;7452;-66
2023/01/31 04:07:41;;;;;;;;;;;;;;;25.56;36.99;95109.88;5034120;28;7044;-66
2023/01/31 04:10:14;;;;;;;;;;;;;;;25.56;37.51;95102.38;5034888;28;7676;-66
2023/01/31 04:12:40;;;;;;;;;;;;;;;25.57;36.68;95112.16;5060792;28;7047;-66
2023/01/31 04:15:07;;;;;;;;;;;;;;;25.58;37.05;95105.41;5045613;28;7047;-66
2023/01/31 04:17:33;;;;;;;;;;;;;;;25.59;37.61;95103.41;5043411;28;9148;-66
2023/01/31 04:20:02;;;;;;;;;;;;;;;25.57;37.27;95112.16;5037575;28;7614;-66
2023/01/31 04:22:35;;;;;;;;;;;;;;;25.58;36.80;95113.66;5038836;28;7585;-66
2023/01/31 04:25:01;;;;;;;;;;;;;;;25.57;36.82;95108.66;5055119;28;7194;-67
2023/01/31 04:27:31;;;;;;;;;;;;;;;25.57;37.14;95112.16;5050030;28;8828;-66
2023/01/31 04:29:59;;;;;;;;;;;;;;;25.55;36.66;95114.66;5046467;28;7305;-66
2023/01/31 04:32:27;;;;;;;;;;;;;;;25.57;36.88;95123.19;5034571;28;7305;-65
2023/01/31 04:34:52;;;;;;;;;;;;;;;25.56;36.88;95116.16;5031691;28;7240;-66
2023/01/31 04:37:18;;;;;;;;;;;;;;;25.58;36.82;95119.16;5049603;28;9687;-67
2023/01/31 04:39:44;;;;;;;;;;;;;;;25.57;36.76;95119.66;5065956;28;9178;-66
2023/01/31 04:42:19;;;;;;;;;;;;;;;25.59;37.08;95123.44;5035204;28;7444;-66
2023/01/31 04:45:17;;;;;;;;;;;;;;;25.58;37.52;95119.16;5050747;28;7622;-66
2023/01/31 04:47:43;;;;;;;;;;;;;;;25.58;36.64;95113.66;5045075;28;7378;-66
2023/01/31 04:50:09;;;;;;;;;;;;;;;25.58;37.21;95123.94;5046194;28;7010;-66
2023/01/31 04:52:38;;;;;;;;;;;;;;;25.57;37.31;95122.44;5039632;28;7122;-66
2023/01/31 04:55:05;;;;;;;;;;;;;;;25.57;37.52;95125.19;5066167;28;7098;-66
2023/01/31 04:57:31;;;;;;;;;;;;;;;25.57;36.57;95120.44;5042773;28;7566;-66
2023/01/31 05:00:36;;;;;;;;;;;;;;;25.58;36.70;95121.91;5046993;28;7071;-66
2023/01/31 05:03:02;;;;;;;;;;;;;;;25.55;36.58;95125.69;5042262;28;7079;-66
2023/01/31 05:05:49;;;;;;;;;;;;;;;25.54;37.28;95118.66;5041839;28;7111;-66
2023/01/31 05:08:16;;;;;;;;;;;;;;;25.52;36.91;95115.63;5044184;28;7253;-66
2023/01/31 05:10:42;;;;;;;;;;;;;;;25.54;37.25;95113.13;5046230;28;7278;-66
2023/01/31 05:13:10;;;;;;;;;;;;;;;25.54;36.79;95118.66;5046329;28;8704;-61
2023/01/31 05:15:38;;;;;;;;;;;;;;;25.54;36.59;95124.16;5072178;28;7241;-61
2023/01/31 05:18:06;;;;;;;;;;;;;;;25.56;36.98;95127.19;5044781;28;9502;-62
2023/01/31 05:20:38;;;;;;;;;;;;;;;25.56;36.75;95131.91;5042722;28;9428;-61
2023/01/31 05:23:16;;;;;;;;;;;;;;;25.57;37.27;95134.19;5042213;28;7022;-62
2023/01/31 05:25:43;;;;;;;;;;;;;;;25.57;37.62;95139.72;5044485;28;7590;-61
2023/01/31 05:28:16;;;;;;;;;;;;;;;25.55;37.29;95147.72;5049012;28;7066;-62
2023/01/31 05:31:25;;;;;;;;;;;;;;;25.56;37.36;95148.44;5040939;28;8947;-61
2023/01/31 05:33:53;;;;;;;;;;;;;;;25.56;37.42;95154.72;5049115;28;7061;-62
2023/01/31 05:36:19;;;;;;;;;;;;;;;25.53;37.32;95150.22;5046385;28;7050;-62
2023/01/31 05:38:47;;;;;;;;;;;;;;;25.55;37.27;95157.97;5048392;28;7133;-62
2023/01/31 05:41:21;;;;;;;;;;;;;;;25.55;37.23;95157.97;5042044;28;7329;-62
2023/01/31 05:44:13;;;;;;;;;;;;;;;25.56;37.78;95165.75;5048846;28;7276;-62
2023/01/31 05:46:39;;;;;;;;;;;;;;;25.55;37.27;95164.25;5046156;28;7279;-62
2023/01/31 05:49:06;;;;;;;;;;;;;;;25.54;37.36;95154.47;5049515;28;7282;-62
2023/01/31 05:52:01;;;;;;;;;;;;;;;25.54;37.90;95151.72;5081396;28;6856;-62
2023/01/31 05:54:29;;;;;;;;;;;;;;;25.53;37.65;95150.22;4989585;28;7366;-62
2023/01/31 05:57:07;;;;;;;;;;;;;;;25.56;37.50;95160.22;4972190;28;7527;-61
2023/01/31 05:59:34;;;;;;;;;;;;;;;25.60;36.96;95169.00;5004515;28;9067;-62
2023/01/31 06:02:01;;;;;;;;;;;;;;;25.58;38.02;95160.50;4988784;28;8731;-62
2023/01/31 06:04:40;;;;;;;;;;;;;;;25.58;37.58;95157.00;4989945;28;9045;-61
2023/01/31 06:07:17;;;;;;;;;;;;;;;25.58;38.46;95149.47;4966692;28;7288;-66
2023/01/31 06:09:54;;;;;;;;;;;;;;;25.60;38.06;95152.47;4983291;28;9422;-65
2023/01/31 06:12:20;;;;;;;;;;;;;;;25.63;37.41;95145.25;4985671;28;7030;-66
2023/01/31 06:14:53;;;;;;;;;;;;;;;25.64;37.80;95158.53;4980626;28;7208;-66
2023/01/31 06:17:22;;;;;;;;;;;;;;;25.68;38.32;95158.31;4984570;28;7012;-66
2023/01/31 06:19:49;;;;;;;;;;;;;;;25.70;37.63;95159.31;4985546;28;7080;-65
2023/01/31 06:22:18;;;;;;;;;;;;;;;25.71;38.33;95166.31;4985127;28;7092;-66
2023/01/31 06:24:44;;;;;;;;;;;;;;;25.74;38.04;95165.34;5000063;28;8860;-65
2023/01/31 06:27:10;;;;;;;;;;;;;;;25.75;38.40;95171.63;4983993;28;7049;-66
2023/01/31 06:29:38;;;;;;;;;;;;;;;25.74;37.91;95167.34;4983419;28;9296;-66
2023/01/31 06:32:06;;;;;;;;;;;;;;;25.72;37.75;95170.59;5073930;28;9240;-66
2023/01/31 06:34:32;;;;;;;;;;;;;;;25.70;38.13;95169.59;5047699;28;9138;-66
2023/01/31 06:36:58;;;;;;;;;;;;;;;25.70;37.61;95167.59;5057711;28;7253;-66
2023/01/31 06:40:17;;;;;;;;;;;;;;;25.68;36.91;95170.09;5047965;28;8992;-65
2023/01/31 06:42:52;;;;;;;;;;;;;;;25.65;37.02;95165.53;5045427;28;9036;-65
2023/01/31 06:45:28;;;;;;;;;;;;;;;25.67;37.01;95170.56;5046146;28;7791;-65
2023/01/31 06:48:37;;;;;;;;;;;;;;;25.65;37.96;95173.06;5047847;28;7817;-65
2023/01/31 06:51:34;;;;;;;;;;;;;;;25.63;37.04;95175.53;5040457;28;7219;-65
2023/01/31 06:54:15;;;;;;;;;;;;;;;25.59;37.36;95166.75;5057363;28;9357;-65
2023/01/31 06:56:45;;;;;;;;;;;;;;;25.60;37.69;95171.03;5040578;28;7076;-62
2023/01/31 06:59:11;;;;;;;;;;;;;;;25.60;37.85;95165.53;5043641;28;7208;-62
2023/01/31 07:01:37;;;;;;;;;;;;;;;25.57;37.89;95166.50;5033346;28;7237;-62
2023/01/31 07:04:03;;;;;;;;;;;;;;;25.58;37.58;95168.75;5038101;28;9362;-62
2023/01/31 07:06:31;;;;;;;;;;;;;;;25.58;37.10;95179.78;5058444;28;7246;-62
2023/01/31 07:08:57;;;;;;;;;;;;;;;25.57;37.82;95181.03;5050079;28;7208;-62
2023/01/31 07:11:23;;;;;;;;;;;;;;;25.59;37.40;95173.03;5041833;28;8748;-62
2023/01/31 07:13:49;;;;;;;;;;;;;;;25.59;37.73;95178.53;5046608;28;7249;-62
2023/01/31 07:16:16;;;;;;;;;;;;;;;25.56;37.62;95176.75;5042302;28;7575;-62
2023/01/31 07:18:42;;;;;;;;;;;;;;;25.60;37.82;95182.06;5052847;28;9258;-62
2023/01/31 07:21:10;;;;;;;;;;;;;;;25.61;38.12;95184.31;5036139;28;7311;-62
2023/01/31 07:23:36;;;;;;;;;;;;;;;25.61;38.06;95189.06;5038812;28;7253;-61
2023/01/31 07:26:06;;;;;;;;;;;;;;;25.60;37.51;95184.81;5042944;28;8448;-61
2023/01/31 07:28:32;;;;;;;;;;;;;;;25.61;37.60;95189.06;5044473;28;8183;-62
2023/01/31 07:31:11;;;;;;;;;;;;;;;25.60;38.25;95182.78;5037317;28;7449;-62
2023/01/31 07:33:39;;;;;;;;;;;;;;;25.58;37.80;95185.28;5049221;28;7291;-62
2023/01/31 07:36:07;;;;;;;;;;;;;;;25.64;37.88;95177.81;5047469;28;8223;-62
2023/01/31 07:38:34;;;;;;;;;;;;;;;25.65;37.59;95181.31;5051131;28;7752;-62
2023/01/31 07:41:04;;;;;;;;;;;;;;;25.63;37.72;95189.31;5073990;28;7269;-62
2023/01/31 07:43:38;;;;;;;;;;;;;;;25.61;37.60;95187.06;5046643;28;9310;-62
2023/01/31 07:46:09;;;;;;;;;;;;;;;25.58;38.62;95187.31;5043024;28;7290;-62
2023/01/31 07:48:38;;;;;;;;;;;;;;;25.60;38.56;95184.81;5043806;28;8972;-62
2023/01/31 07:51:10;;;;;;;;;;;;;;;25.59;37.85;95189.56;5066358;28;7270;-62
2023/01/31 07:53:45;;;;;;;;;;;;;;;25.59;38.25;95195.06;5044786;28;7862;-62
2023/01/31 07:56:17;;;;;;;;;;;;;;;25.59;38.55;95184.06;5033498;28;7267;-62
2023/01/31 07:58:45;;;;;;;;;;;;;;;25.59;38.77;95191.56;5041595;28;9012;-62
2023/01/31 08:04:10;;;;;;;;;;;;;;;25.59;37.91;95186.03;5039125;28;9081;-62
2023/01/31 08:06:39;;;;;;;;;;;;;;;25.58;38.16;95179.03;5030873;28;7873;-62
2023/01/31 08:09:13;;;;;;;;;;;;;;;25.59;37.97;95181.28;5037751;28;7721;-62
2023/01/31 08:12:08;;;;;;;;;;;;;;;25.60;38.55;95188.28;5045260;28;7258;-62
2023/01/31 08:14:44;;;;;;;;;;;;;;;25.61;38.58;95194.56;4986057;28;9030;-62
2023/01/31 08:17:19;;;;;;;;;;;;;;;25.60;38.16;95198.59;4967810;28;7268;-62
2023/01/31 08:23:50;;;;;;;;;;;;;;;25.61;38.36;95205.59;4970268;28;7171;-62
2023/01/31 08:26:25;;;;;;;;;;;;;;;25.60;38.53;95206.84;4925558;29;9308;-61
2023/01/31 08:29:17;;;;;;;;;;;;;;;25.60;38.70;95204.09;4931254;29;7529;-62
2023/01/31 08:31:56;;;;;;;;;;;;;;;25.59;38.69;95203.34;4940016;29;9100;-62
2023/01/31 08:34:26;;;;;;;;;;;;;;;25.61;38.47;95203.59;4946078;29;7258;-62
2023/01/31 08:36:55;;;;;;;;;;;;;;;25.64;38.42;95205.38;4930934;29;7713;-66
2023/01/31 08:39:23;;;;;;;;;;;;;;;25.62;38.58;95207.84;4932155;29;9055;-68
2023/01/31 08:41:49;;;;;;;;;;;;;;;25.63;38.65;95203.84;4950376;28;7616;-68
2023/01/31 08:44:39;;;;;;;;;;;;;;;25.63;38.90;95212.13;4933782;28;8790;-67
2023/01/31 08:47:08;;;;;;;;;;;;;;;25.64;38.62;95204.63;4925776;28;7259;-67
2023/01/31 08:49:36;;;;;;;;;;;;;;;25.63;38.36;95198.34;4937411;28;7331;-67
2023/01/31 08:52:35;;;;;;;;;;;;;;;25.64;37.83;95191.59;5028467;28;8593;-66
2023/01/31 08:55:28;;;;;;;;;;;;;;;25.65;37.80;95195.84;4988941;28;9019;-67
2023/01/31 08:57:54;;;;;;;;;;;;;;;25.65;38.04;95195.09;4977330;28;7022;-61
2023/01/31 09:00:31;;;;;;;;;;;;;;;25.65;38.71;95189.56;4961204;28;9552;-62
2023/01/31 09:03:17;;;;;;;;;;;;;;;25.65;38.37;95187.59;4984722;28;7198;-62
2023/01/31 09:06:37;;;;;;;;;;;;;;;25.65;38.70;95186.81;5001086;28;7489;-62
2023/01/31 09:09:15;;;;;;;;;;;;;;;25.65;38.27;95187.59;5024751;28;8714;-62
2023/01/31 09:11:50;;;;;;;;;;;;;;;25.68;38.18;95192.13;4997760;28;8916;-62
2023/01/31 09:14:17;;;;;;;;;;;;;;;25.69;38.26;95184.59;5015706;28;9629;-62
2023/01/31 09:16:45;;;;;;;;;;;;;;;25.70;38.65;95188.88;5029968;28;9245;-62
2023/01/31 09:19:16;;;;;;;;;;;;;;;25.69;38.30;95195.59;4995399;28;7237;-62
2023/01/31 09:21:51;;;;;;;;;;;;;;;25.69;38.52;95196.38;5012161;28;7220;-62
2023/01/31 09:24:17;;;;;;;;;;;;;;;25.73;38.04;95185.13;5008947;28;7419;-62
2023/01/31 09:26:59;;;;;;;;;;;;;;;25.72;38.12;95189.88;5009922;28;7957;-61
2023/01/31 09:29:36;;;;;;;;;;;;;;;25.74;37.96;95194.91;5028656;28;7026;-62
2023/01/31 09:32:37;;;;;;;;;;;;;;;25.74;37.76;95201.16;5035572;28;8895;-62
2023/01/31 09:35:04;;;;;;;;;;;;;;;25.75;37.90;95197.16;4956962;28;9457;-62
2023/01/31 09:37:30;;;;;;;;;;;;;;;25.76;38.03;95186.88;4950822;28;9689;-62
2023/01/31 09:39:56;;;;;;;;;;;;;;;25.76;37.90;95182.13;4970511;28;7041;-62
2023/01/31 09:42:35;;;;;;;;;;;;;;;25.78;37.72;95187.91;4977009;28;9052;-62
2023/01/31 09:45:11;;;;;;;;;;;;;;;25.80;37.97;95184.66;4965777;28;7229;-62
2023/01/31 09:47:51;;;;;;;;;;;;;;;25.79;37.96;95175.66;4964376;28;7106;-62
2023/01/31 09:50:34;;;;;;;;;;;;;;;25.82;37.91;95179.41;4971309;28;7110;-62
2023/01/31 09:53:25;;;;;;;;;;;;;;;25.82;37.60;95191.19;4972455;28;9592;-62
2023/01/31 09:56:34;;;;;;;;;;;;;;;25.85;37.90;95181.94;4951975;28;9227;-62
2023/01/31 09:59:07;;;;;;;;;;;;;;;25.84;35.13;95190.69;4953684;28;9513;-62
2023/01/31 10:01:53;;;;;;;;;;;;;;;25.78;34.87;95195.41;4935418;28;7243;-65
2023/01/31 10:05:08;;;;;;;;;;;;;;;25.74;33.77;95200.41;4946619;28;7326;-66
2023/01/31 10:08:02;;;;;;;;;;;;;;;25.73;33.63;95204.44;4895765;29;9220;-66
2023/01/31 10:10:44;;;;;;;;;;;;;;;25.73;33.72;95207.91;4831531;29;9013;-66
2023/01/31 10:13:17;;;;;;;;;;;;;;;25.71;32.83;95207.66;4871284;29;9539;-65
2023/01/31 10:15:51;;;;;;;;;;;;;;;25.77;32.93;95216.72;4857263;29;7283;-66
2023/01/31 10:18:34;;;;;;;;;;;;;;;25.80;32.87;95215.72;4867997;29;6985;-65
2023/01/31 10:21:08;;;;;;;;;;;;;;;25.80;32.64;95215.72;4859564;29;9096;-66
2023/01/31 10:23:44;;;;;;;;;;;;;;;25.81;33.79;95217.25;4857138;29;7392;-65
2023/01/31 10:26:33;;;;;;;;;;;;;;;25.82;32.90;95207.72;4869386;29;9549;-66
2023/01/31 10:29:27;;;;;;;;;;;;;;;25.83;32.99;95206.50;4869488;29;7048;-66
2023/01/31 10:32:29;;;;;;;;;;;;;;;25.92;33.47;95208.28;4800212;29;9434;-66
2023/01/31 10:35:40;;;;;;;;;;;;;;;25.92;33.77;95200.78;5076200;27;6744;-64
2023/01/31 10:38:25;;;;;;;;;;;;;;;25.93;34.02;95198.75;5086354;28;8671;-63
2023/01/31 10:41:01;;;;;;;;;;;;;;;25.94;34.15;95198.28;5056094;28;9058;-63
2023/01/31 10:43:41;;;;;;;;;;;;;;;25.93;34.23;95202.28;5055335;28;7224;-63
2023/01/31 10:46:37;;;;;;;;;;;;;;;25.96;34.20;95204.06;5061143;28;9681;-64
2023/01/31 10:49:06;;;;;;;;;;;;;;;26.00;34.23;95201.06;5003710;28;9615;-63
2023/01/31 10:52:34;;;;;;;;;;;;;;;26.01;33.71;95200.53;5008080;28;7269;-63
2023/01/31 10:54:59;;;;;;;;;;;;;;;26.01;34.61;95189.53;4886145;29;9335;-63
2023/01/31 10:57:26;;;;;;;;;;;;;;;26.02;34.64;95179.25;4872587;29;7019;-64
2023/01/31 10:59:53;;;;;;;;;;;;;;;26.04;34.76;95176.75;4884938;29;9018;-63
2023/01/31 11:02:28;;;;;;;;;;;;;;;26.03;34.14;95164.97;4887120;29;9020;-63
2023/01/31 11:04:57;;;;;;;;;;;;;;;26.03;34.54;95161.47;4879366;29;7381;-63
2023/01/31 11:07:28;;;;;;;;;;;;;;;26.03;34.81;95162.22;4888312;29;7047;-63
2023/01/31 11:09:54;;;;;;;;;;;;;;;26.04;34.16;95154.69;4891181;29;7323;-63
2023/01/31 11:12:38;;;;;;;;;;;;;;;26.07;34.39;95156.47;4871775;29;7537;-65
2023/01/31 11:15:24;;;;;;;;;;;;;;;26.04;34.80;95147.19;4882856;29;7232;-65
2023/01/31 11:17:59;;;;;;;;;;;;;;;26.06;34.70;95141.19;4887181;29;7011;-65
2023/01/31 11:20:33;;;;;;;;;;;;;;;26.07;35.28;95137.94;4887661;29;9030;-65
2023/01/31 11:23:05;;;;;;;;;;;;;;;26.08;35.41;95130.41;4872648;29;9335;-65
2023/01/31 11:25:40;;;;;;;;;;;;;;;26.10;34.68;95136.19;4912270;29;7243;-65
2023/01/31 11:28:44;;;;;;;;;;;;;;;26.08;35.11;95139.47;4950888;28;7281;-66
2023/01/31 11:31:40;;;;;;;;;;;;;;;26.12;34.37;95139.25;5024533;28;9055;-66
2023/01/31 11:34:32;;;;;;;;;;;;;;;26.10;35.15;95148.00;5055473;28;7144;-66
2023/01/31 11:37:16;;;;;;;;;;;;;;;26.12;35.40;95139.97;5058694;28;7610;-65
2023/01/31 11:40:18;;;;;;;;;;;;;;;26.15;35.20;95130.72;5053105;28;9463;-65
2023/01/31 11:43:00;;;;;;;;;;;;;;;26.16;35.22;95129.44;5061099;28;9173;-65
2023/01/31 11:45:38;;;;;;;;;;;;;;;26.18;35.31;95123.47;5054409;28;7048;-65
2023/01/31 11:48:15;;;;;;;;;;;;;;;26.17;34.57;95114.44;5045490;28;9413;-66
2023/01/31 11:51:04;;;;;;;;;;;;;;;26.23;34.85;95110.94;5038851;28;7342;-65
2023/01/31 11:53:48;;;;;;;;;;;;;;;26.21;34.78;95108.66;5038959;28;7029;-65
2023/01/31 11:56:21;;;;;;;;;;;;;;;26.21;34.90;95099.66;5039352;28;7277;-65
2023/01/31 11:58:52;;;;;;;;;;;;;;;26.21;35.18;95094.16;5046176;28;7024;-65
2023/01/31 12:01:25;;;;;;;;;;;;;;;26.21;35.40;95091.38;5035841;28;9180;-65
2023/01/31 12:04:04;;;;;;;;;;;;;;;26.20;35.02;95093.38;5035989;28;7316;-65
2023/01/31 12:06:39;;;;;;;;;;;;;;;26.20;35.20;95093.38;5040220;28;7199;-65
2023/01/31 12:09:50;;;;;;;;;;;;;;;26.22;34.81;95092.88;5047655;28;7339;-65
2023/01/31 12:12:42;;;;;;;;;;;;;;;26.19;35.61;95085.63;5041271;28;8949;-65
2023/01/31 12:16:00;;;;;;;;;;;;;;;26.21;34.72;95097.63;5040826;28;8738;-65
2023/01/31 12:18:45;;;;;;;;;;;;;;;26.22;34.62;95092.88;4989284;28;7041;-65
2023/01/31 12:22:02;;;;;;;;;;;;;;;26.19;35.42;95100.13;5008970;28;7361;-65
2023/01/31 12:24:40;;;;;;;;;;;;;;;26.19;34.84;95091.88;4954400;28;7249;-65
2023/01/31 12:27:27;;;;;;;;;;;;;;;26.22;35.38;95092.88;4929830;28;7236;-62
2023/01/31 12:30:33;;;;;;;;;;;;;;;26.23;34.67;95099.91;4954076;28;9096;-61
2023/01/31 12:33:20;;;;;;;;;;;;;;;26.22;34.83;95092.88;4936027;28;7215;-57
2023/01/31 12:35:48;;;;;;;;;;;;;;;26.20;35.14;95076.09;4953661;28;8743;-57
2023/01/31 12:38:23;;;;;;;;;;;;;;;26.20;35.59;95067.81;4950844;28;9489;-57
2023/01/31 12:41:35;;;;;;;;;;;;;;;26.20;34.90;95067.81;4953494;28;7214;-57
2023/01/31 12:44:48;;;;;;;;;;;;;;;26.23;35.20;95075.09;4930355;29;7495;-57
2023/01/31 12:47:45;;;;;;;;;;;;;;;26.23;35.38;95083.38;4964397;28;7642;-57
2023/01/31 12:50:36;;;;;;;;;;;;;;;26.25;34.77;95080.88;4934733;29;7230;-57
2023/01/31 12:53:51;;;;;;;;;;;;;;;26.26;35.70;95082.34;4955798;28;9038;-58
2023/01/31 12:56:21;;;;;;;;;;;;;;;26.32;35.11;95085.91;4890927;29;7270;-57
2023/01/31 12:59:31;;;;;;;;;;;;;;;26.33;34.81;95084.63;4886279;29;7204;-57
2023/01/31 13:02:49;;;;;;;;;;;;;;;26.34;35.18;95083.38;4953846;28;9305;-57
2023/01/31 13:05:54;;;;;;;;;;;;;;;26.36;34.97;95078.84;4946118;28;7214;-57
2023/01/31 13:08:38;;;;;;;;;;;;;;;26.38;35.48;95092.16;4937839;28;6984;-57
2023/01/31 13:11:26;;;;;;;;;;;;;;;26.41;35.90;95085.63;4948651;28;7232;-57
2023/01/31 13:14:02;;;;;;;;;;;;;;;26.43;35.96;95074.84;4929283;28;7262;-57
2023/01/31 13:16:40;;;;;;;;;;;;;;;26.45;35.91;95073.09;4945666;28;7282;-57
2023/01/31 13:19:30;;;;;;;;;;;;;;;26.47;35.76;95069.88;4938176;28;9479;-57
2023/01/31 13:22:04;;;;;;;;;;;;;;;26.50;35.72;95075.13;4951387;28;7254;-57
2023/01/31 13:24:47;;;;;;;;;;;;;;;26.53;35.21;95068.63;4933239;28;7903;-57
2023/01/31 13:27:41;;;;;;;;;;;;;;;26.57;35.00;95077.41;4923716;28;7049;-57
2023/01/31 13:30:33;;;;;;;;;;;;;;;26.59;35.35;95085.16;4934900;28;7187;-57
2023/01/31 13:33:15;;;;;;;;;;;;;;;26.58;35.56;95069.84;5014373;28;7190;-57
2023/01/31 13:35:44;;;;;;;;;;;;;;;26.60;35.44;95070.84;5041126;28;9104;-57
2023/01/31 13:38:19;;;;;;;;;;;;;;;26.64;35.72;95059.59;5039614;28;6868;-57
2023/01/31 13:40:52;;;;;;;;;;;;;;;26.65;35.34;95059.06;5039926;28;8990;-57
2023/01/31 13:43:19;;;;;;;;;;;;;;;26.68;35.28;95051.81;5046958;28;8843;-57
2023/01/31 13:45:57;;;;;;;;;;;;;;;26.65;35.12;95048.03;5035970;28;9027;-57
2023/01/31 13:49:00;;;;;;;;;;;;;;;26.64;35.45;95034.75;5053410;28;9043;-57
2023/01/31 13:51:38;;;;;;;;;;;;;;;26.62;35.63;95034.50;4990099;28;7390;-57
2023/01/31 13:54:19;;;;;;;;;;;;;;;26.59;35.22;95050.06;4989764;28;7365;-57
2023/01/31 13:56:56;;;;;;;;;;;;;;;26.57;35.29;95071.13;5004162;28;7840;-57
2023/01/31 13:59:32;;;;;;;;;;;;;;;26.53;35.10;95063.09;4987433;28;7559;-57
2023/01/31 14:02:02;;;;;;;;;;;;;;;26.51;35.65;95062.81;4983621;28;9438;-57
2023/01/31 14:04:37;;;;;;;;;;;;;;;26.50;35.01;95068.84;4986007;28;7298;-57
2023/01/31 14:07:11;;;;;;;;;;;;;;;26.49;35.76;95079.13;4989048;28;7461;-57
2023/01/31 14:09:38;;;;;;;;;;;;;;;26.47;35.69;95073.34;5003768;28;9062;-57
2023/01/31 14:12:16;;;;;;;;;;;;;;;26.48;35.25;95074.13;4993694;28;9007;-57
2023/01/31 14:14:45;;;;;;;;;;;;;;;26.45;35.76;95066.84;5001592;28;9357;-57
2023/01/31 14:17:20;;;;;;;;;;;;;;;26.44;35.72;95076.38;4988128;28;6996;-57
2023/01/31 14:19:46;;;;;;;;;;;;;;;26.45;35.80;95086.13;4992577;28;9060;-57